sensor_id;sensor_type;location;lat;lon;timestamp;pressure;altitude;pressure_sealevel;temperature;humidity
7200;BME280;3641;49.082;8.200;2024-02-26T00:00:46;98418.53;;;7.81;66.29
7200;BME280;3641;49.082;8.200;2024-02-26T00:03:14;98420.22;;;7.69;66.35
7200;BME280;3641;49.082;8.200;2024-02-26T00:05:41;98414.56;;;7.84;65.75
7200;BME280;3641;49.082;8.200;2024-02-26T00:08:07;98414.13;;;7.87;65.91
7200;BME280;3641;49.082;8.200;2024-02-26T00:10:34;98417.00;;;7.92;66.33
7200;BME280;3641;49.082;8.200;2024-02-26T00:13:01;98420.78;;;7.91;66.33
7200;BME280;3641;49.082;8.200;2024-02-26T00:15:27;98422.69;;;7.77;66.63
7200;BME280;3641;49.082;8.200;2024-02-26T00:17:54;98424.88;;;7.61;66.68
7200;BME280;3641;49.082;8.200;2024-02-26T00:20:21;98428.03;;;7.45;68.06
7200;BME280;3641;49.082;8.200;2024-02-26T00:22:48;98424.47;;;7.44;69.44
7200;BME280;3641;49.082;8.200;2024-02-26T00:25:14;98431.59;;;7.45;68.56
7200;BME280;3641;49.082;8.200;2024-02-26T00:27:41;98424.47;;;7.58;69.02
7200;BME280;3641;49.082;8.200;2024-02-26T00:30:09;98428.19;;;7.63;67.95
7200;BME280;3641;49.082;8.200;2024-02-26T00:32:37;98437.22;;;7.51;70.13
7200;BME280;3641;49.082;8.200;2024-02-26T00:35:04;98433.84;;;7.55;69.71
7200;BME280;3641;49.082;8.200;2024-02-26T00:37:32;98442.25;;;7.47;70.71
7200;BME280;3641;49.082;8.200;2024-02-26T00:39:58;98443.41;;;7.71;68.76
7200;BME280;3641;49.082;8.200;2024-02-26T00:42:24;98446.19;;;7.58;69.29
7200;BME280;3641;49.082;8.200;2024-02-26T00:44:51;98447.63;;;7.60;68.77
7200;BME280;3641;49.082;8.200;2024-02-26T00:47:17;98447.69;;;7.27;73.70
7200;BME280;3641;49.082;8.200;2024-02-26T00:49:43;98451.44;;;7.39;70.87
7200;BME280;3641;49.082;8.200;2024-02-26T00:52:10;98441.38;;;7.46;73.85
7200;BME280;3641;49.082;8.200;2024-02-26T00:54:38;98439.66;;;7.66;69.49
7200;BME280;3641;49.082;8.200;2024-02-26T00:57:04;98441.72;;;7.77;68.50
7200;BME280;3641;49.082;8.200;2024-02-26T00:59:30;98445.50;;;7.76;71.14
7200;BME280;3641;49.082;8.200;2024-02-26T01:01:57;98440.75;;;7.51;71.88
7200;BME280;3641;49.082;8.200;2024-02-26T01:04:27;98431.53;;;7.72;69.69
7200;BME280;3641;49.082;8.200;2024-02-26T01:06:53;98442.25;;;7.40;74.62
7200;BME280;3641;49.082;8.200;2024-02-26T01:09:19;98447.22;;;7.57;71.85
7200;BME280;3641;49.082;8.200;2024-02-26T01:11:47;98450.16;;;7.49;74.93
7200;BME280;3641;49.082;8.200;2024-02-26T01:14:13;98463.06;;;7.67;71.50
7200;BME280;3641;49.082;8.200;2024-02-26T01:16:40;98460.19;;;7.55;72.58
7200;BME280;3641;49.082;8.200;2024-02-26T01:19:06;98460.59;;;7.58;73.56
7200;BME280;3641;49.082;8.200;2024-02-26T01:21:33;98463.50;;;7.57;73.07
7200;BME280;3641;49.082;8.200;2024-02-26T01:23:59;98472.53;;;7.44;75.39
7200;BME280;3641;49.082;8.200;2024-02-26T01:26:26;98478.34;;;7.48;75.38
7200;BME280;3641;49.082;8.200;2024-02-26T01:28:53;98479.44;;;7.20;77.99
7200;BME280;3641;49.082;8.200;2024-02-26T01:31:20;98469.22;;;7.08;78.12
7200;BME280;3641;49.082;8.200;2024-02-26T01:33:47;98470.41;;;7.46;74.58
7200;BME280;3641;49.082;8.200;2024-02-26T01:36:13;98463.97;;;7.34;78.53
7200;BME280;3641;49.082;8.200;2024-02-26T01:38:40;98467.09;;;7.24;79.63
7200;BME280;3641;49.082;8.200;2024-02-26T01:41:06;98470.66;;;7.18;79.46
7200;BME280;3641;49.082;8.200;2024-02-26T01:43:32;98467.09;;;7.31;76.96
7200;BME280;3641;49.082;8.200;2024-02-26T01:46:00;98463.16;;;7.26;78.79
7200;BME280;3641;49.082;8.200;2024-02-26T01:48:27;98467.28;;;7.49;74.79
7200;BME280;3641;49.082;8.200;2024-02-26T01:50:53;98468.56;;;7.13;82.56
7200;BME280;3641;49.082;8.200;2024-02-26T01:53:20;98469.44;;;7.07;84.39
7200;BME280;3641;49.082;8.200;2024-02-26T01:55:46;98468.38;;;7.08;84.70
7200;BME280;3641;49.082;8.200;2024-02-26T01:58:13;98473.59;;;7.03;85.75
7200;BME280;3641;49.082;8.200;2024-02-26T02:00:40;98474.22;;;6.98;86.36
7200;BME280;3641;49.082;8.200;2024-02-26T02:03:08;98484.66;;;7.01;87.24
7200;BME280;3641;49.082;8.200;2024-02-26T02:05:36;98472.75;;;7.09;85.37
7200;BME280;3641;49.082;8.200;2024-02-26T02:08:07;98476.72;;;7.00;87.54
7200;BME280;3641;49.082;8.200;2024-02-26T02:10:34;98478.41;;;7.01;87.55
7200;BME280;3641;49.082;8.200;2024-02-26T02:13:00;98483.63;;;6.96;88.29
7200;BME280;3641;49.082;8.200;2024-02-26T02:15:27;98482.16;;;6.93;88.20
7200;BME280;3641;49.082;8.200;2024-02-26T02:17:53;98489.88;;;6.89;90.11
7200;BME280;3641;49.082;8.200;2024-02-26T02:20:24;98483.38;;;6.84;91.38
7200;BME280;3641;49.082;8.200;2024-02-26T02:22:52;98480.88;;;6.89;92.11
7200;BME280;3641;49.082;8.200;2024-02-26T02:25:18;98480.47;;;6.85;91.95
7200;BME280;3641;49.082;8.200;2024-02-26T02:27:45;98489.03;;;6.89;90.49
7200;BME280;3641;49.082;8.200;2024-02-26T02:30:12;98485.03;;;6.71;95.73
7200;BME280;3641;49.082;8.200;2024-02-26T02:32:40;98492.19;;;6.93;92.44
7200;BME280;3641;49.082;8.200;2024-02-26T02:35:07;98484.63;;;7.15;84.99
7200;BME280;3641;49.082;8.200;2024-02-26T02:37:35;98484.22;;;7.11;91.83
7200;BME280;3641;49.082;8.200;2024-02-26T02:40:02;98479.84;;;6.90;94.05
7200;BME280;3641;49.082;8.200;2024-02-26T02:42:30;98479.63;;;7.05;89.32
7200;BME280;3641;49.082;8.200;2024-02-26T02:44:56;98484.44;;;7.16;89.36
7200;BME280;3641;49.082;8.200;2024-02-26T02:47:23;98486.53;;;7.34;85.74
7200;BME280;3641;49.082;8.200;2024-02-26T02:49:49;98478.56;;;7.39;83.55
7200;BME280;3641;49.082;8.200;2024-02-26T02:52:16;98481.53;;;7.31;86.88
7200;BME280;3641;49.082;8.200;2024-02-26T02:54:43;98474.19;;;7.38;84.15
7200;BME280;3641;49.082;8.200;2024-02-26T02:57:12;98466.88;;;7.52;83.05
7200;BME280;3641;49.082;8.200;2024-02-26T02:59:39;98465.19;;;7.51;83.44
7200;BME280;3641;49.082;8.200;2024-02-26T03:02:05;98464.75;;;7.54;82.48
7200;BME280;3641;49.082;8.200;2024-02-26T03:04:32;98455.78;;;7.54;81.66
7200;BME280;3641;49.082;8.200;2024-02-26T03:06:58;98462.22;;;7.59;82.55
7200;BME280;3641;49.082;8.200;2024-02-26T03:09:25;98454.09;;;7.59;81.35
7200;BME280;3641;49.082;8.200;2024-02-26T03:11:53;98455.84;;;7.40;85.45
7200;BME280;3641;49.082;8.200;2024-02-26T03:14:19;98451.19;;;7.54;84.33
7200;BME280;3641;49.082;8.200;2024-02-26T03:16:46;98449.09;;;7.50;84.29
7200;BME280;3641;49.082;8.200;2024-02-26T03:19:14;98449.34;;;7.35;87.02
7200;BME280;3641;49.082;8.200;2024-02-26T03:21:40;98448.50;;;7.41;86.72
7200;BME280;3641;49.082;8.200;2024-02-26T03:24:07;98439.94;;;7.44;84.16
7200;BME280;3641;49.082;8.200;2024-02-26T03:26:35;98437.22;;;7.44;83.86
7200;BME280;3641;49.082;8.200;2024-02-26T03:29:03;98432.41;;;7.46;83.71
7200;BME280;3641;49.082;8.200;2024-02-26T03:31:29;98427.06;;;6.93;97.50
7200;BME280;3641;49.082;8.200;2024-02-26T03:33:56;98426.19;;;7.25;88.54
7200;BME280;3641;49.082;8.200;2024-02-26T03:36:22;98419.47;;;7.41;85.64
7200;BME280;3641;49.082;8.200;2024-02-26T03:38:48;98419.53;;;7.01;94.12
7200;BME280;3641;49.082;8.200;2024-02-26T03:41:15;98417.66;;;7.15;88.06
7200;BME280;3641;49.082;8.200;2024-02-26T03:43:41;98422.06;;;6.69;100.00
7200;BME280;3641;49.082;8.200;2024-02-26T03:46:09;98415.97;;;7.14;89.19
7200;BME280;3641;49.082;8.200;2024-02-26T03:48:36;98413.91;;;7.23;87.76
7200;BME280;3641;49.082;8.200;2024-02-26T03:51:03;98413.91;;;6.76;99.81
7200;BME280;3641;49.082;8.200;2024-02-26T03:53:30;98405.56;;;6.51;100.00
7200;BME280;3641;49.082;8.200;2024-02-26T03:55:56;98406.63;;;6.57;100.00
7200;BME280;3641;49.082;8.200;2024-02-26T03:58:22;98404.75;;;6.70;100.00
7200;BME280;3641;49.082;8.200;2024-02-26T04:00:49;98392.63;;;6.40;100.00
7200;BME280;3641;49.082;8.200;2024-02-26T04:03:16;98394.94;;;6.83;93.29
7200;BME280;3641;49.082;8.200;2024-02-26T04:05:43;98393.50;;;6.73;98.57
7200;BME280;3641;49.082;8.200;2024-02-26T04:08:09;98388.06;;;6.67;98.64
7200;BME280;3641;49.082;8.200;2024-02-26T04:10:36;98395.16;;;6.81;96.36
7200;BME280;3641;49.082;8.200;2024-02-26T04:13:04;98396.84;;;6.62;99.36
7200;BME280;3641;49.082;8.200;2024-02-26T04:15:30;98397.88;;;6.61;100.00
7200;BME280;3641;49.082;8.200;2024-02-26T04:17:56;98397.66;;;6.49;100.00
7200;BME280;3641;49.082;8.200;2024-02-26T04:20:24;98395.38;;;6.80;93.81
7200;BME280;3641;49.082;8.200;2024-02-26T04:22:51;98395.78;;;6.90;94.15
7200;BME280;3641;49.082;8.200;2024-02-26T04:25:18;98397.63;;;7.03;89.00
7200;BME280;3641;49.082;8.200;2024-02-26T04:27:44;98401.56;;;7.20;86.67
7200;BME280;3641;49.082;8.200;2024-02-26T04:30:11;98413.06;;;6.89;95.29
7200;BME280;3641;49.082;8.200;2024-02-26T04:32:38;98409.94;;;7.19;86.68
7200;BME280;3641;49.082;8.200;2024-02-26T04:35:05;98411.19;;;7.09;89.33
7200;BME280;3641;49.082;8.200;2024-02-26T04:37:32;98408.47;;;7.09;89.93
7200;BME280;3641;49.082;8.200;2024-02-26T04:40:00;98412.44;;;7.20;85.84
7200;BME280;3641;49.082;8.200;2024-02-26T04:42:26;98401.59;;;6.94;95.12
7200;BME280;3641;49.082;8.200;2024-02-26T04:44:54;98409.31;;;6.97;92.78
7200;BME280;3641;49.082;8.200;2024-02-26T04:47:20;98414.75;;;6.97;95.54
7200;BME280;3641;49.082;8.200;2024-02-26T04:49:47;98421.41;;;6.87;96.76
7200;BME280;3641;49.082;8.200;2024-02-26T04:52:14;98417.44;;;7.17;87.70
7200;BME280;3641;49.082;8.200;2024-02-26T04:54:42;98417.22;;;7.25;86.35
7200;BME280;3641;49.082;8.200;2024-02-26T04:57:08;98420.75;;;7.25;87.77
7200;BME280;3641;49.082;8.200;2024-02-26T04:59:34;98424.13;;;7.07;90.52
7200;BME280;3641;49.082;8.200;2024-02-26T05:02:02;98431.81;;;7.31;87.32
7200;BME280;3641;49.082;8.200;2024-02-26T05:04:29;98426.41;;;7.24;88.33
7200;BME280;3641;49.082;8.200;2024-02-26T05:06:56;98436.22;;;7.18;87.91
7200;BME280;3641;49.082;8.200;2024-02-26T05:09:22;98429.75;;;7.19;87.90
7200;BME280;3641;49.082;8.200;2024-02-26T05:11:50;98424.75;;;7.23;86.43
7200;BME280;3641;49.082;8.200;2024-02-26T05:14:16;98435.59;;;7.30;85.55
7200;BME280;3641;49.082;8.200;2024-02-26T05:16:42;98434.34;;;7.25;86.55
7200;BME280;3641;49.082;8.200;2024-02-26T05:19:09;98438.31;;;7.23;86.47
7200;BME280;3641;49.082;8.200;2024-02-26T05:21:35;98442.88;;;7.29;85.87
7200;BME280;3641;49.082;8.200;2024-02-26T05:24:02;98445.16;;;7.32;84.86
7200;BME280;3641;49.082;8.200;2024-02-26T05:26:28;98453.09;;;7.34;84.92
7200;BME280;3641;49.082;8.200;2024-02-26T05:28:56;98453.09;;;7.34;85.27
7200;BME280;3641;49.082;8.200;2024-02-26T05:31:25;98449.97;;;7.30;86.30
7200;BME280;3641;49.082;8.200;2024-02-26T05:33:52;98455.44;;;7.23;87.28
7200;BME280;3641;49.082;8.200;2024-02-26T05:36:19;98458.75;;;7.25;86.42
7200;BME280;3641;49.082;8.200;2024-02-26T05:38:47;98460.44;;;7.13;88.63
7200;BME280;3641;49.082;8.200;2024-02-26T05:41:14;98454.81;;;7.01;95.01
7200;BME280;3641;49.082;8.200;2024-02-26T05:43:41;98460.88;;;7.17;88.04
7200;BME280;3641;49.082;8.200;2024-02-26T05:46:08;98471.06;;;6.68;99.61
7200;BME280;3641;49.082;8.200;2024-02-26T05:48:35;98472.34;;;7.05;90.30
7200;BME280;3641;49.082;8.200;2024-02-26T05:51:01;98469.00;;;7.17;89.54
7200;BME280;3641;49.082;8.200;2024-02-26T05:53:28;98470.66;;;7.11;88.63
7200;BME280;3641;49.082;8.200;2024-02-26T05:55:54;98469.19;;;7.02;90.64
7200;BME280;3641;49.082;8.200;2024-02-26T05:58:21;98479.44;;;7.26;87.70
7200;BME280;3641;49.082;8.200;2024-02-26T06:00:47;98468.56;;;7.06;90.89
7200;BME280;3641;49.082;8.200;2024-02-26T06:03:15;98473.59;;;6.96;92.39
7200;BME280;3641;49.082;8.200;2024-02-26T06:05:42;98477.13;;;6.90;96.66
7200;BME280;3641;49.082;8.200;2024-02-26T06:08:08;98476.94;;;6.91;93.69
7200;BME280;3641;49.082;8.200;2024-02-26T06:10:35;98478.16;;;6.82;98.68
7200;BME280;3641;49.082;8.200;2024-02-26T06:13:01;98485.88;;;6.99;91.90
7200;BME280;3641;49.082;8.200;2024-02-26T06:15:28;98495.28;;;7.16;88.44
7200;BME280;3641;49.082;8.200;2024-02-26T06:17:54;98502.19;;;7.25;88.66
7200;BME280;3641;49.082;8.200;2024-02-26T06:20:22;98495.09;;;7.24;90.54
7200;BME280;3641;49.082;8.200;2024-02-26T06:22:48;98508.88;;;7.23;91.48
7200;BME280;3641;49.082;8.200;2024-02-26T06:25:15;98503.66;;;7.28;87.71
7200;BME280;3641;49.082;8.200;2024-02-26T06:27:41;98514.50;;;7.35;86.30
7200;BME280;3641;49.082;8.200;2024-02-26T06:30:08;98510.31;;;7.32;87.06
7200;BME280;3641;49.082;8.200;2024-02-26T06:32:36;98516.59;;;7.26;89.73
7200;BME280;3641;49.082;8.200;2024-02-26T06:35:03;98507.19;;;7.28;87.86
7200;BME280;3641;49.082;8.200;2024-02-26T06:37:33;98511.38;;;7.31;87.74
7200;BME280;3641;49.082;8.200;2024-02-26T06:40:00;98507.41;;;7.40;86.91
7200;BME280;3641;49.082;8.200;2024-02-26T06:42:26;98517.22;;;7.28;90.74
7200;BME280;3641;49.082;8.200;2024-02-26T06:44:54;98519.50;;;7.31;88.53
7200;BME280;3641;49.082;8.200;2024-02-26T06:47:20;98514.28;;;7.36;87.17
7200;BME280;3641;49.082;8.200;2024-02-26T06:49:47;98517.81;;;7.37;88.33
7200;BME280;3641;49.082;8.200;2024-02-26T06:52:13;98526.63;;;7.39;86.87
7200;BME280;3641;49.082;8.200;2024-02-26T06:54:41;98519.91;;;7.35;88.34
7200;BME280;3641;49.082;8.200;2024-02-26T06:57:07;98527.25;;;7.34;87.76
7200;BME280;3641;49.082;8.200;2024-02-26T06:59:34;98531.19;;;7.38;87.14
7200;BME280;3641;49.082;8.200;2024-02-26T07:02:00;98536.41;;;7.33;88.67
7200;BME280;3641;49.082;8.200;2024-02-26T07:04:27;98543.53;;;7.41;87.94
7200;BME280;3641;49.082;8.200;2024-02-26T07:06:53;98533.72;;;7.26;89.75
7200;BME280;3641;49.082;8.200;2024-02-26T07:09:19;98549.56;;;7.36;87.59
7200;BME280;3641;49.082;8.200;2024-02-26T07:11:47;98538.72;;;7.43;87.38
7200;BME280;3641;49.082;8.200;2024-02-26T07:14:14;98547.25;;;7.13;96.79
7200;BME280;3641;49.082;8.200;2024-02-26T07:16:40;98544.34;;;7.28;89.76
7200;BME280;3641;49.082;8.200;2024-02-26T07:19:06;98542.47;;;7.22;95.28
7200;BME280;3641;49.082;8.200;2024-02-26T07:21:33;98540.38;;;7.04;98.25
7200;BME280;3641;49.082;8.200;2024-02-26T07:23:59;98547.69;;;7.30;90.37
7200;BME280;3641;49.082;8.200;2024-02-26T07:26:26;98547.69;;;7.30;91.26
7200;BME280;3641;49.082;8.200;2024-02-26T07:28:57;98544.34;;;7.41;88.85
7200;BME280;3641;49.082;8.200;2024-02-26T07:31:24;98553.09;;;7.43;90.04
7200;BME280;3641;49.082;8.200;2024-02-26T07:33:50;98572.31;;;7.08;98.83
7200;BME280;3641;49.082;8.200;2024-02-26T07:36:17;98559.38;;;7.04;97.52
7200;BME280;3641;49.082;8.200;2024-02-26T07:38:44;98556.00;;;7.02;100.00
7200;BME280;3641;49.082;8.200;2024-02-26T07:41:11;98555.81;;;7.03;99.68
7200;BME280;3641;49.082;8.200;2024-02-26T07:43:39;98575.56;;;6.70;100.00
7200;BME280;3641;49.082;8.200;2024-02-26T07:46:07;98565.41;;;6.99;97.99
7200;BME280;3641;49.082;8.200;2024-02-26T07:48:34;98564.16;;;7.02;100.00
7200;BME280;3641;49.082;8.200;2024-02-26T07:51:00;98549.56;;;7.16;96.56
7200;BME280;3641;49.082;8.200;2024-02-26T07:53:28;98555.19;;;7.15;99.33
7200;BME280;3641;49.082;8.200;2024-02-26T07:55:54;98561.47;;;7.28;95.35
7200;BME280;3641;49.082;8.200;2024-02-26T07:58:21;98571.28;;;7.36;95.47
7200;BME280;3641;49.082;8.200;2024-02-26T08:00:49;98567.34;;;7.39;94.71
7200;BME280;3641;49.082;8.200;2024-02-26T08:03:16;98557.72;;;7.30;97.98
7200;BME280;3641;49.082;8.200;2024-02-26T08:05:43;98548.53;;;7.24;97.39
7200;BME280;3641;49.082;8.200;2024-02-26T08:08:09;98558.72;;;7.02;100.00
7200;BME280;3641;49.082;8.200;2024-02-26T08:10:36;98561.47;;;7.28;99.04
7200;BME280;3641;49.082;8.200;2024-02-26T08:13:02;98565.25;;;7.34;100.00
7200;BME280;3641;49.082;8.200;2024-02-26T08:15:31;98556.06;;;7.42;100.00
7200;BME280;3641;49.082;8.200;2024-02-26T08:17:57;98553.13;;;7.23;100.00
7200;BME280;3641;49.082;8.200;2024-02-26T08:20:26;98563.34;;;7.35;100.00
7200;BME280;3641;49.082;8.200;2024-02-26T08:22:53;98567.31;;;7.59;93.56
7200;BME280;3641;49.082;8.200;2024-02-26T08:25:19;98567.72;;;7.16;100.00
7200;BME280;3641;49.082;8.200;2024-02-26T08:27:46;98566.91;;;7.42;98.34
7200;BME280;3641;49.082;8.200;2024-02-26T08:30:14;98573.59;;;7.39;100.00
7200;BME280;3641;49.082;8.200;2024-02-26T08:32:42;98584.84;;;7.36;100.00
7200;BME280;3641;49.082;8.200;2024-02-26T08:35:09;98578.56;;;7.22;100.00
7200;BME280;3641;49.082;8.200;2024-02-26T08:37:37;98578.38;;;7.31;100.00
7200;BME280;3641;49.082;8.200;2024-02-26T08:40:04;98572.13;;;7.37;100.00
7200;BME280;3641;49.082;8.200;2024-02-26T08:42:31;98586.94;;;7.21;100.00
7200;BME280;3641;49.082;8.200;2024-02-26T08:44:58;98589.00;;;7.19;100.00
7200;BME280;3641;49.082;8.200;2024-02-26T08:47:25;98587.97;;;7.40;100.00
7200;BME280;3641;49.082;8.200;2024-02-26T08:49:51;98589.88;;;7.53;100.00
7200;BME280;3641;49.082;8.200;2024-02-26T08:52:18;98588.81;;;7.60;100.00
7200;BME280;3641;49.082;8.200;2024-02-26T08:54:46;98590.28;;;7.63;100.00
7200;BME280;3641;49.082;8.200;2024-02-26T08:57:12;98585.25;;;7.87;94.77
7200;BME280;3641;49.082;8.200;2024-02-26T08:59:39;98596.53;;;7.70;100.00
7200;BME280;3641;49.082;8.200;2024-02-26T09:02:05;98602.16;;;7.75;100.00
7200;BME280;3641;49.082;8.200;2024-02-26T09:04:33;98599.44;;;7.95;95.14
7200;BME280;3641;49.082;8.200;2024-02-26T09:07:00;98607.59;;;7.75;100.00
7200;BME280;3641;49.082;8.200;2024-02-26T09:09:27;98603.66;;;7.71;100.00
7200;BME280;3641;49.082;8.200;2024-02-26T09:11:55;98607.41;;;7.57;100.00
7200;BME280;3641;49.082;8.200;2024-02-26T09:14:21;98597.13;;;7.99;97.73
7200;BME280;3641;49.082;8.200;2024-02-26T09:16:48;98611.97;;;8.03;100.00
7200;BME280;3641;49.082;8.200;2024-02-26T09:19:14;98603.19;;;8.08;97.84
7200;BME280;3641;49.082;8.200;2024-02-26T09:21:42;98608.00;;;7.92;100.00
7200;BME280;3641;49.082;8.200;2024-02-26T09:24:09;98601.28;;;8.08;99.41
7200;BME280;3641;49.082;8.200;2024-02-26T09:26:35;98609.22;;;8.16;97.25
7200;BME280;3641;49.082;8.200;2024-02-26T09:29:03;98610.28;;;8.09;98.61
7200;BME280;3641;49.082;8.200;2024-02-26T09:31:29;98604.66;;;7.97;100.00
7200;BME280;3641;49.082;8.200;2024-02-26T09:33:56;98607.78;;;8.14;97.56
7200;BME280;3641;49.082;8.200;2024-02-26T09:36:23;98606.72;;;8.15;96.71
7200;BME280;3641;49.082;8.200;2024-02-26T09:38:50;98604.16;;;8.33;93.75
7200;BME280;3641;49.082;8.200;2024-02-26T09:41:16;98611.31;;;8.21;99.79
7200;BME280;3641;49.082;8.200;2024-02-26T09:43:44;98614.84;;;8.22;97.75
7200;BME280;3641;49.082;8.200;2024-02-26T09:46:12;98614.03;;;8.14;100.00
7200;BME280;3641;49.082;8.200;2024-02-26T09:48:42;98616.56;;;7.96;100.00
7200;BME280;3641;49.082;8.200;2024-02-26T09:51:09;98614.03;;;8.14;100.00
7200;BME280;3641;49.082;8.200;2024-02-26T09:53:38;98612.34;;;8.27;100.00
7200;BME280;3641;49.082;8.200;2024-02-26T09:56:08;98621.34;;;8.21;100.00
7200;BME280;3641;49.082;8.200;2024-02-26T09:58:35;98621.28;;;8.54;97.29
7200;BME280;3641;49.082;8.200;2024-02-26T10:01:05;98629.69;;;8.46;98.39
7200;BME280;3641;49.082;8.200;2024-02-26T10:03:38;98625.44;;;8.57;97.08
7200;BME280;3641;49.082;8.200;2024-02-26T10:06:06;98629.78;;;8.71;93.72
7200;BME280;3641;49.082;8.200;2024-02-26T10:08:34;98625.41;;;8.70;95.39
7200;BME280;3641;49.082;8.200;2024-02-26T10:11:02;98623.97;;;8.61;98.17
7200;BME280;3641;49.082;8.200;2024-02-26T10:13:29;98623.75;;;8.62;96.04
7200;BME280;3641;49.082;8.200;2024-02-26T10:15:55;98630.78;;;8.83;93.56
7200;BME280;3641;49.082;8.200;2024-02-26T10:18:22;98635.22;;;8.71;96.92
7200;BME280;3641;49.082;8.200;2024-02-26T10:21:00;98636.47;;;8.75;96.45
7200;BME280;3641;49.082;8.200;2024-02-26T10:23:26;98633.50;;;8.83;97.47
7200;BME280;3641;49.082;8.200;2024-02-26T10:25:53;98640.13;;;8.49;99.26
7200;BME280;3641;49.082;8.200;2024-02-26T10:28:20;98636.59;;;8.87;94.39
7200;BME280;3641;49.082;8.200;2024-02-26T10:30:47;98639.94;;;8.96;94.13
7200;BME280;3641;49.082;8.200;2024-02-26T10:33:13;98642.00;;;9.00;95.37
7200;BME280;3641;49.082;8.200;2024-02-26T10:35:45;98650.25;;;8.80;98.71
7200;BME280;3641;49.082;8.200;2024-02-26T10:38:13;98650.88;;;8.82;98.98
7200;BME280;3641;49.082;8.200;2024-02-26T10:40:42;98654.97;;;8.98;96.04
7200;BME280;3641;49.082;8.200;2024-02-26T10:43:09;98657.91;;;9.03;96.68
7200;BME280;3641;49.082;8.200;2024-02-26T10:45:35;98660.81;;;9.08;94.30
7200;BME280;3641;49.082;8.200;2024-02-26T10:48:02;98661.75;;;9.27;91.54
7200;BME280;3641;49.082;8.200;2024-02-26T10:50:29;98659.94;;;9.15;96.91
7200;BME280;3641;49.082;8.200;2024-02-26T10:52:55;98654.22;;;9.23;98.36
7200;BME280;3641;49.082;8.200;2024-02-26T10:55:24;98653.13;;;9.31;97.58
7200;BME280;3641;49.082;8.200;2024-02-26T10:57:52;98661.81;;;9.46;97.39
7200;BME280;3641;49.082;8.200;2024-02-26T11:00:19;98660.94;;;9.52;97.09
7200;BME280;3641;49.082;8.200;2024-02-26T11:02:45;98673.91;;;9.57;95.67
7200;BME280;3641;49.082;8.200;2024-02-26T11:05:13;98674.25;;;9.67;94.09
7200;BME280;3641;49.082;8.200;2024-02-26T11:07:41;98679.28;;;9.70;92.96
7200;BME280;3641;49.082;8.200;2024-02-26T11:10:09;98677.94;;;9.48;95.33
7200;BME280;3641;49.082;8.200;2024-02-26T11:12:39;98680.75;;;9.66;95.62
7200;BME280;3641;49.082;8.200;2024-02-26T11:15:06;98677.22;;;9.91;94.79
7200;BME280;3641;49.082;8.200;2024-02-26T11:17:35;98676.06;;;10.05;95.58
7200;BME280;3641;49.082;8.200;2024-02-26T11:20:02;98661.03;;;10.21;96.83
7200;BME280;3641;49.082;8.200;2024-02-26T11:22:28;98663.78;;;10.40;93.49
7200;BME280;3641;49.082;8.200;2024-02-26T11:24:56;98663.75;;;10.21;93.37
7200;BME280;3641;49.082;8.200;2024-02-26T11:27:25;98668.41;;;10.39;93.88
7200;BME280;3641;49.082;8.200;2024-02-26T11:29:57;98665.25;;;10.42;91.06
7200;BME280;3641;49.082;8.200;2024-02-26T11:32:26;98665.84;;;10.44;91.79
7200;BME280;3641;49.082;8.200;2024-02-26T11:34:53;98666.91;;;10.62;92.84
7200;BME280;3641;49.082;8.200;2024-02-26T11:37:20;98663.72;;;10.65;91.38
7200;BME280;3641;49.082;8.200;2024-02-26T11:39:46;98660.91;;;10.71;91.22
7200;BME280;3641;49.082;8.200;2024-02-26T11:42:14;98664.41;;;10.60;91.84
7200;BME280;3641;49.082;8.200;2024-02-26T11:44:41;98662.06;;;10.64;90.98
7200;BME280;3641;49.082;8.200;2024-02-26T11:47:13;98659.84;;;10.54;89.45
7200;BME280;3641;49.082;8.200;2024-02-26T11:49:40;98662.44;;;10.49;89.85
7200;BME280;3641;49.082;8.200;2024-02-26T11:52:08;98658.34;;;10.58;90.40
7200;BME280;3641;49.082;8.200;2024-02-26T11:54:38;98660.00;;;10.59;89.99
7200;BME280;3641;49.082;8.200;2024-02-26T11:57:20;98671.44;;;10.86;91.01
7200;BME280;3641;49.082;8.200;2024-02-26T11:59:46;98685.50;;;10.90;89.99
7200;BME280;3641;49.082;8.200;2024-02-26T12:02:38;98682.53;;;10.73;88.21
7200;BME280;3641;49.082;8.200;2024-02-26T12:05:06;98676.91;;;10.68;89.82
7200;BME280;3641;49.082;8.200;2024-02-26T12:07:34;98682.44;;;10.80;89.13
7200;BME280;3641;49.082;8.200;2024-02-26T12:10:16;98679.25;;;10.83;88.36
7200;BME280;3641;49.082;8.200;2024-02-26T12:12:42;98677.75;;;10.87;87.50
7200;BME280;3641;49.082;8.200;2024-02-26T12:15:09;98679.03;;;10.84;87.08
7200;BME280;3641;49.082;8.200;2024-02-26T12:17:37;98683.66;;;10.84;86.69
7200;BME280;3641;49.082;8.200;2024-02-26T12:20:11;98687.13;;;10.91;86.78
7200;BME280;3641;49.082;8.200;2024-02-26T12:22:39;98689.41;;;10.94;88.10
7200;BME280;3641;49.082;8.200;2024-02-26T12:25:08;98689.72;;;11.04;87.51
7200;BME280;3641;49.082;8.200;2024-02-26T12:27:35;98681.75;;;11.03;84.84
7200;BME280;3641;49.082;8.200;2024-02-26T12:30:02;98689.50;;;11.06;85.71
7200;BME280;3641;49.082;8.200;2024-02-26T12:32:29;98685.41;;;10.97;83.62
7200;BME280;3641;49.082;8.200;2024-02-26T12:34:58;98692.13;;;10.94;85.69
7200;BME280;3641;49.082;8.200;2024-02-26T12:37:25;98690.50;;;10.93;85.22
7200;BME280;3641;49.082;8.200;2024-02-26T12:39:51;98691.16;;;10.88;84.06
7200;BME280;3641;49.082;8.200;2024-02-26T12:42:18;98690.25;;;10.95;84.54
7200;BME280;3641;49.082;8.200;2024-02-26T12:44:44;98688.81;;;10.92;84.67
7200;BME280;3641;49.082;8.200;2024-02-26T12:47:11;98690.84;;;10.97;83.97
7200;BME280;3641;49.082;8.200;2024-02-26T12:49:42;98693.88;;;11.07;85.24
7200;BME280;3641;49.082;8.200;2024-02-26T12:52:10;98694.50;;;11.09;82.56
7200;BME280;3641;49.082;8.200;2024-02-26T12:54:37;98690.53;;;11.05;81.24
7200;BME280;3641;49.082;8.200;2024-02-26T12:57:05;98700.31;;;11.13;83.69
7200;BME280;3641;49.082;8.200;2024-02-26T12:59:33;98700.56;;;10.93;83.33
7200;BME280;3641;49.082;8.200;2024-02-26T13:02:00;98707.91;;;11.11;84.14
7200;BME280;3641;49.082;8.200;2024-02-26T13:04:29;98703.16;;;11.06;83.90
7200;BME280;3641;49.082;8.200;2024-02-26T13:06:56;98707.75;;;11.05;82.54
7200;BME280;3641;49.082;8.200;2024-02-26T13:09:27;98711.94;;;11.08;83.42
7200;BME280;3641;49.082;8.200;2024-02-26T13:11:53;98711.84;;;11.15;83.52
7200;BME280;3641;49.082;8.200;2024-02-26T13:14:20;98711.34;;;11.06;81.72
7200;BME280;3641;49.082;8.200;2024-02-26T13:16:54;98712.53;;;11.10;79.90
7200;BME280;3641;49.082;8.200;2024-02-26T13:19:21;98714.47;;;11.21;80.82
7200;BME280;3641;49.082;8.200;2024-02-26T13:21:48;98713.16;;;11.12;81.99
7200;BME280;3641;49.082;8.200;2024-02-26T13:24:14;98713.53;;;11.16;81.34
7200;BME280;3641;49.082;8.200;2024-02-26T13:26:43;98719.88;;;11.28;79.78
7200;BME280;3641;49.082;8.200;2024-02-26T13:29:16;98713.88;;;11.38;80.63